createdAt,value
2022-11-03T00:01:53.865Z,15.20
2022-11-03T00:04:22.567Z,15.10
2022-11-03T00:06:51.087Z,15.00
2022-11-03T00:09:19.672Z,15.10
2022-11-03T00:11:48.189Z,15.10
2022-11-03T00:14:15.698Z,15.00
2022-11-03T00:16:43.530Z,15.00
2022-11-03T00:19:11.425Z,14.90
2022-11-03T00:21:39.048Z,14.80
2022-11-03T00:24:06.804Z,14.80
2022-11-03T00:26:35.160Z,14.80
2022-11-03T00:29:06.773Z,14.80
2022-11-03T00:31:35.073Z,14.80
2022-11-03T00:34:03.223Z,14.90
2022-11-03T00:36:31.885Z,15.10
2022-11-03T00:38:59.484Z,15.00
2022-11-03T00:41:26.961Z,14.90
2022-11-03T00:43:54.847Z,14.90
2022-11-03T00:46:23.040Z,14.90
2022-11-03T00:48:50.835Z,14.90
2022-11-03T00:51:19.283Z,14.80
2022-11-03T00:53:47.896Z,14.80
2022-11-03T00:56:16.808Z,14.90
2022-11-03T00:58:44.721Z,14.90
2022-11-03T01:01:13.925Z,14.90
2022-11-03T01:03:42.472Z,14.90
2022-11-03T01:06:30.120Z,14.90
2022-11-03T01:08:59.186Z,14.90
2022-11-03T01:11:44.809Z,15.10
2022-11-03T01:14:14.372Z,15.00
2022-11-03T01:16:42.356Z,15.00
2022-11-03T01:19:09.853Z,15.00
2022-11-03T01:21:37.381Z,15.10
2022-11-03T01:24:05.291Z,15.30
2022-11-03T01:26:33.016Z,15.30
2022-11-03T01:29:00.707Z,15.10
2022-11-03T01:31:28.982Z,15.20
2022-11-03T01:33:56.872Z,15.20
2022-11-03T01:36:24.537Z,15.00
2022-11-03T01:38:51.994Z,14.90
2022-11-03T01:41:20.487Z,14.90
2022-11-03T01:43:50.802Z,14.90
2022-11-03T01:46:18.283Z,14.80
2022-11-03T01:48:50.259Z,14.90
2022-11-03T01:51:21.313Z,14.90
2022-11-03T01:53:49.512Z,15.00
2022-11-03T01:56:17.191Z,15.10
2022-11-03T01:58:47.063Z,15.10
2022-11-03T02:01:14.623Z,15.00
2022-11-03T02:03:45.518Z,15.00
2022-11-03T02:06:13.316Z,15.00
2022-11-03T02:08:53.006Z,14.90
2022-11-03T02:11:39.065Z,14.90
2022-11-03T02:14:11.059Z,14.80
2022-11-03T02:16:41.646Z,14.80
2022-11-03T02:19:20.168Z,14.90
2022-11-03T02:22:10.957Z,14.80
2022-11-03T02:25:02.050Z,14.80
2022-11-03T02:27:29.684Z,14.70
2022-11-03T02:29:59.131Z,14.80
2022-11-03T02:32:30.069Z,14.80
2022-11-03T02:35:15.895Z,14.90
2022-11-03T02:37:46.303Z,15.00
2022-11-03T02:40:15.471Z,15.00
2022-11-03T02:42:46.131Z,14.90
2022-11-03T02:45:17.378Z,14.80
2022-11-03T02:47:45.418Z,14.80
2022-11-03T02:50:13.649Z,14.80
2022-11-03T02:52:42.590Z,14.80
2022-11-03T02:55:26.450Z,14.80
2022-11-03T02:58:00.155Z,14.80
2022-11-03T03:00:29.034Z,14.80
2022-11-03T03:03:03.095Z,14.80
2022-11-03T03:05:32.089Z,14.70
2022-11-03T03:08:02.229Z,14.80
2022-11-03T03:10:31.835Z,14.80
2022-11-03T03:12:59.720Z,14.80
2022-11-03T03:15:35.920Z,14.80
2022-11-03T03:18:03.272Z,14.80
2022-11-03T03:20:37.910Z,14.80
2022-11-03T03:23:14.656Z,14.80
2022-11-03T03:25:46.042Z,14.70
2022-11-03T03:28:38.827Z,14.70
2022-11-03T03:31:08.456Z,14.70
2022-11-03T03:33:35.913Z,14.70
2022-11-03T03:36:04.948Z,14.70
2022-11-03T03:38:46.865Z,14.70
2022-11-03T03:41:22.270Z,14.70
2022-11-03T03:43:51.296Z,14.70
2022-11-03T03:46:20.367Z,14.60
2022-11-03T03:48:48.246Z,14.70
2022-11-03T03:51:17.660Z,14.90
2022-11-03T03:53:45.235Z,15.00
2022-11-03T03:56:12.566Z,15.10
2022-11-03T03:58:40.022Z,15.00
2022-11-03T04:01:10.793Z,15.10
2022-11-03T04:03:38.342Z,15.00
2022-11-03T04:06:05.874Z,15.00
2022-11-03T04:08:33.375Z,15.00
2022-11-03T04:11:19.568Z,14.80
2022-11-03T04:14:05.341Z,14.60
2022-11-03T04:16:51.510Z,14.50
2022-11-03T04:19:37.330Z,14.40
2022-11-03T04:22:16.647Z,14.50
2022-11-03T04:24:44.862Z,14.70
2022-11-03T04:27:26.902Z,14.80
2022-11-03T04:30:25.136Z,14.90
2022-11-03T04:32:53.373Z,14.70
2022-11-03T04:35:22.893Z,14.60
2022-11-03T04:37:58.508Z,14.60
2022-11-03T04:40:26.029Z,14.80
2022-11-03T04:42:54.136Z,14.80
2022-11-03T04:45:28.436Z,14.70
2022-11-03T04:47:56.261Z,14.70
2022-11-03T04:50:24.075Z,14.70
2022-11-03T04:52:54.454Z,14.60
2022-11-03T04:55:22.158Z,14.70
2022-11-03T04:57:53.647Z,14.80
2022-11-03T05:00:21.058Z,14.90
2022-11-03T05:02:51.598Z,15.00
2022-11-03T05:05:23.360Z,15.00
2022-11-03T05:07:52.402Z,14.80
2022-11-03T05:10:21.448Z,15.00
2022-11-03T05:12:49.268Z,14.90
2022-11-03T05:15:31.962Z,14.70
2022-11-03T05:18:00.254Z,14.70
2022-11-03T05:20:36.015Z,14.70
2022-11-03T05:23:05.578Z,14.90
2022-11-03T05:25:43.919Z,14.70
2022-11-03T05:28:19.666Z,14.70
2022-11-03T05:30:50.842Z,14.70
2022-11-03T05:33:21.358Z,14.60
2022-11-03T05:35:49.235Z,14.60
2022-11-03T05:38:19.026Z,14.60
2022-11-03T05:40:46.769Z,14.60
2022-11-03T05:43:15.070Z,14.60
2022-11-03T05:45:42.988Z,14.60
2022-11-03T05:48:25.710Z,14.60
2022-11-03T05:50:53.201Z,14.60
2022-11-03T05:53:29.335Z,14.60
2022-11-03T05:55:58.495Z,14.60
2022-11-03T05:58:28.087Z,14.60
2022-11-03T06:00:57.736Z,14.60
2022-11-03T06:03:29.214Z,14.50
2022-11-03T06:05:57.596Z,14.60
2022-11-03T06:08:31.009Z,14.60
2022-11-03T06:10:58.874Z,14.60
2022-11-03T06:13:37.372Z,14.60
2022-11-03T06:16:07.122Z,14.60
2022-11-03T06:18:36.442Z,14.60
2022-11-03T06:21:08.617Z,14.60
2022-11-03T06:23:36.296Z,14.60
2022-11-03T06:26:04.638Z,14.60
2022-11-03T06:28:37.053Z,14.70
2022-11-03T06:31:05.285Z,14.70
2022-11-03T06:33:36.445Z,14.80
2022-11-03T06:36:11.299Z,15.10
2022-11-03T06:38:39.154Z,15.20
2022-11-03T06:41:15.012Z,15.20
2022-11-03T06:43:42.946Z,15.30
2022-11-03T06:46:19.468Z,15.30
2022-11-03T06:48:47.278Z,15.30
2022-11-03T06:51:15.696Z,15.00
2022-11-03T06:53:43.176Z,14.90
2022-11-03T06:56:12.996Z,14.80
2022-11-03T06:58:40.839Z,14.80
2022-11-03T07:01:29.687Z,14.70
2022-11-03T07:03:58.987Z,14.80
2022-11-03T07:06:28.958Z,15.00
2022-11-03T07:08:57.788Z,15.10
2022-11-03T07:11:27.303Z,14.90
2022-11-03T07:13:59.226Z,14.90
2022-11-03T07:16:29.755Z,15.00
2022-11-03T07:18:59.333Z,15.10
2022-11-03T07:21:35.989Z,15.10
2022-11-03T07:24:05.601Z,15.00
2022-11-03T07:26:34.021Z,15.00
2022-11-03T07:29:01.752Z,15.10
2022-11-03T07:31:29.247Z,15.30
2022-11-03T07:33:59.684Z,15.40
2022-11-03T07:36:31.427Z,15.30
2022-11-03T07:39:00.195Z,15.20
2022-11-03T07:41:32.919Z,15.30
2022-11-03T07:44:02.377Z,15.40
2022-11-03T07:46:29.856Z,15.20
2022-11-03T07:48:58.654Z,15.00
2022-11-03T07:51:30.786Z,15.10
2022-11-03T07:54:03.018Z,15.30
2022-11-03T07:56:35.711Z,15.20
2022-11-03T07:59:06.300Z,15.20
2022-11-03T08:01:53.336Z,15.20
2022-11-03T08:04:39.070Z,15.40
2022-11-03T08:07:06.815Z,15.60
2022-11-03T08:09:34.365Z,15.60
2022-11-03T08:12:01.912Z,15.70
2022-11-03T08:14:30.770Z,15.80
2022-11-03T08:16:58.414Z,15.90
2022-11-03T08:19:26.275Z,15.70
2022-11-03T08:21:53.940Z,15.90
2022-11-03T08:24:21.606Z,16.00
2022-11-03T08:26:49.480Z,16.00
2022-11-03T08:29:20.069Z,16.00
2022-11-03T08:31:47.927Z,16.10
2022-11-03T08:34:15.440Z,16.20
2022-11-03T08:36:42.814Z,16.10
2022-11-03T08:39:10.505Z,16.10
2022-11-03T08:41:37.983Z,16.30
2022-11-03T08:44:06.234Z,16.30
2022-11-03T08:46:33.756Z,16.20
2022-11-03T08:49:01.132Z,16.10
2022-11-03T08:51:28.686Z,16.10
2022-11-03T08:53:56.419Z,16.20
2022-11-03T08:56:23.929Z,16.10
2022-11-03T08:58:51.578Z,16.00
2022-11-03T09:01:19.174Z,16.10
2022-11-03T09:03:46.937Z,16.10
2022-11-03T09:06:14.399Z,16.10
2022-11-03T09:11:29.501Z,16.50
2022-11-03T09:13:58.110Z,16.50
2022-11-03T09:16:25.616Z,16.80
2022-11-03T09:18:53.345Z,16.80
2022-11-03T09:21:20.857Z,16.80
2022-11-03T09:23:48.259Z,16.70
2022-11-03T09:26:16.306Z,16.50
2022-11-03T09:28:43.765Z,16.50
2022-11-03T09:31:11.366Z,16.50
2022-11-03T09:33:39.329Z,16.50
2022-11-03T09:36:06.970Z,16.60
2022-11-03T09:38:34.409Z,16.70
2022-11-03T09:41:04.510Z,16.90
2022-11-03T09:43:37.310Z,17.10
2022-11-03T09:46:04.770Z,17.20
2022-11-03T09:48:32.251Z,17.20
2022-11-03T09:51:00.001Z,17.30
2022-11-03T09:53:27.479Z,17.60
2022-11-03T09:55:55.269Z,17.60
2022-11-03T09:58:22.720Z,17.70
2022-11-03T10:00:50.280Z,17.60
2022-11-03T10:03:18.529Z,17.80
2022-11-03T10:05:46.237Z,17.80
2022-11-03T10:08:23.076Z,17.80
2022-11-03T10:10:51.166Z,17.80
2022-11-03T10:13:30.778Z,17.70
2022-11-03T10:16:00.326Z,17.70
2022-11-03T10:18:28.131Z,17.70
2022-11-03T10:20:55.690Z,17.60
2022-11-03T10:23:23.173Z,17.60
2022-11-03T10:25:50.676Z,17.60
2022-11-03T10:28:22.570Z,17.70
2022-11-03T10:31:12.586Z,17.60
2022-11-03T10:33:42.303Z,17.40
2022-11-03T10:36:15.896Z,17.30
2022-11-03T10:38:46.353Z,17.40
2022-11-03T10:41:18.100Z,17.50
2022-11-03T10:43:59.067Z,17.60
2022-11-03T10:46:49.228Z,17.60
2022-11-03T10:49:19.546Z,17.70
2022-11-03T10:51:48.825Z,17.70
2022-11-03T10:54:17.544Z,17.80
2022-11-03T10:56:46.182Z,17.80
2022-11-03T10:59:18.309Z,17.80
2022-11-03T11:01:46.087Z,17.80
2022-11-03T11:04:17.721Z,17.80
2022-11-03T11:06:46.353Z,17.80
2022-11-03T11:09:21.449Z,17.90
2022-11-03T11:11:58.983Z,17.80
2022-11-03T11:14:26.510Z,18.00
2022-11-03T11:16:55.033Z,18.20
2022-11-03T11:19:23.715Z,18.20
2022-11-03T11:21:51.213Z,18.30
2022-11-03T11:24:37.583Z,18.30
2022-11-03T11:27:24.998Z,18.30
2022-11-03T11:29:52.420Z,18.20
2022-11-03T11:32:38.677Z,18.30
2022-11-03T11:35:10.217Z,18.50
2022-11-03T11:37:38.406Z,18.50
2022-11-03T11:40:34.904Z,18.30
2022-11-03T11:43:02.371Z,18.30
2022-11-03T11:45:53.297Z,18.40
2022-11-03T11:48:20.820Z,18.40
2022-11-03T11:50:48.378Z,18.40
2022-11-03T11:53:20.411Z,18.40
2022-11-03T11:55:58.611Z,18.50
2022-11-03T11:58:29.191Z,18.60
2022-11-03T12:00:59.110Z,18.80
2022-11-03T12:03:35.016Z,18.90
2022-11-03T12:06:02.681Z,19.00
2022-11-03T12:08:31.514Z,19.00
2022-11-03T12:11:00.305Z,18.90
2022-11-03T12:13:40.923Z,18.80
2022-11-03T12:16:08.769Z,18.60
2022-11-03T12:18:40.804Z,18.60
2022-11-03T12:21:11.426Z,18.60
2022-11-03T12:23:41.620Z,18.60
2022-11-03T12:26:16.737Z,18.40
2022-11-03T12:28:44.512Z,18.40
2022-11-03T12:31:12.997Z,18.30
2022-11-03T12:33:40.824Z,18.20
2022-11-03T12:36:08.566Z,18.20
2022-11-03T12:38:36.283Z,18.20
2022-11-03T12:41:21.729Z,18.20
2022-11-03T12:43:49.897Z,18.20
2022-11-03T12:46:17.976Z,18.10
2022-11-03T12:48:45.689Z,18.10
2022-11-03T12:51:13.687Z,18.10
2022-11-03T12:53:41.524Z,18.00
2022-11-03T12:56:09.443Z,18.00
2022-11-03T12:58:37.089Z,18.10
2022-11-03T13:01:05.134Z,18.00
2022-11-03T13:03:33.088Z,17.80
2022-11-03T13:06:01.144Z,17.80
2022-11-03T13:08:28.624Z,17.90
2022-11-03T13:10:56.151Z,17.90
2022-11-03T13:13:23.899Z,17.90
2022-11-03T13:15:53.159Z,17.80
2022-11-03T13:18:21.283Z,17.80
2022-11-03T13:20:48.779Z,17.80
2022-11-03T13:23:18.788Z,17.90
2022-11-03T13:25:49.663Z,17.80
2022-11-03T13:28:17.443Z,17.70
2022-11-03T13:30:44.971Z,17.70
2022-11-03T13:33:12.386Z,17.60
2022-11-03T13:35:39.907Z,17.70
2022-11-03T13:38:07.459Z,17.80
2022-11-03T13:40:55.517Z,17.80
2022-11-03T13:43:22.706Z,17.70
2022-11-03T13:45:50.216Z,17.70
2022-11-03T13:51:07.833Z,17.80
2022-11-03T13:56:23.532Z,18.00
2022-11-03T14:01:39.219Z,17.90
2022-11-03T14:06:55.623Z,18.00
2022-11-03T14:09:23.389Z,17.80
2022-11-03T14:12:09.626Z,17.90
2022-11-03T14:14:37.509Z,18.10
2022-11-03T14:17:04.990Z,18.10
2022-11-03T14:19:38.139Z,18.10
2022-11-03T14:22:09.226Z,18.20
2022-11-03T14:24:36.678Z,18.00
2022-11-03T14:27:04.763Z,17.80
2022-11-03T14:29:32.336Z,17.80
2022-11-03T14:32:00.026Z,17.90
2022-11-03T14:34:27.540Z,18.00
2022-11-03T14:36:55.341Z,17.90
2022-11-03T14:39:22.804Z,17.70
2022-11-03T14:42:06.004Z,17.80
2022-11-03T14:44:34.485Z,17.90
2022-11-03T14:47:02.938Z,18.00
2022-11-03T14:49:31.122Z,18.00
2022-11-03T14:51:59.736Z,17.80
2022-11-03T14:54:27.236Z,17.70
2022-11-03T14:56:54.791Z,17.60
2022-11-03T14:59:22.357Z,17.40
2022-11-03T15:01:51.772Z,17.50
2022-11-03T15:04:19.780Z,17.50
2022-11-03T15:06:47.486Z,17.60
2022-11-03T15:09:15.516Z,17.60
2022-11-03T15:11:43.638Z,17.70
2022-11-03T15:14:12.131Z,17.60
2022-11-03T15:16:40.152Z,17.50
2022-11-03T15:19:07.976Z,17.50
2022-11-03T15:21:35.520Z,17.50
2022-11-03T15:26:50.866Z,17.30
2022-11-03T15:29:18.377Z,17.20
2022-11-03T15:31:48.130Z,17.20
2022-11-03T15:34:16.654Z,17.30
2022-11-03T15:36:44.113Z,17.30
2022-11-03T15:39:11.611Z,17.30
2022-11-03T15:41:39.034Z,17.30
2022-11-03T15:44:06.917Z,17.40
2022-11-03T15:46:35.769Z,17.40
2022-11-03T15:49:03.940Z,17.30
2022-11-03T15:51:31.824Z,17.10
2022-11-03T15:53:59.589Z,17.00
2022-11-03T15:56:27.481Z,16.80
2022-11-03T15:58:55.019Z,16.70
2022-11-03T16:01:22.737Z,16.70
2022-11-03T16:03:50.460Z,16.70
2022-11-03T16:06:18.111Z,16.60
2022-11-03T16:08:45.791Z,16.60
2022-11-03T16:11:14.311Z,16.50
2022-11-03T16:13:41.901Z,16.50
2022-11-03T16:16:09.554Z,16.40
2022-11-03T16:18:37.625Z,16.40
2022-11-03T16:21:05.115Z,16.40
2022-11-03T16:23:32.575Z,16.40
2022-11-03T16:25:59.998Z,16.40
2022-11-03T16:28:27.636Z,16.50
2022-11-03T16:30:55.274Z,16.40
2022-11-03T16:33:22.870Z,16.40
2022-11-03T16:35:50.749Z,16.30
2022-11-03T16:38:18.298Z,16.20
2022-11-03T16:40:45.683Z,16.10
2022-11-03T16:43:13.161Z,16.10
2022-11-03T16:45:40.506Z,16.10
2022-11-03T16:48:08.156Z,16.10
2022-11-03T16:50:37.328Z,16.10
2022-11-03T16:53:06.668Z,16.00
2022-11-03T16:55:34.287Z,16.00
2022-11-03T16:58:01.971Z,16.00
2022-11-03T17:00:29.362Z,16.00
2022-11-03T17:02:56.823Z,16.00
2022-11-03T17:05:24.330Z,16.00
2022-11-03T17:07:53.960Z,16.20
2022-11-03T17:10:22.844Z,16.10
2022-11-03T17:12:50.679Z,16.10
2022-11-03T17:15:18.205Z,16.10
2022-11-03T17:17:45.809Z,16.10
2022-11-03T17:20:13.384Z,16.20
2022-11-03T17:22:40.821Z,16.40
2022-11-03T17:25:09.632Z,16.40
2022-11-03T17:27:42.957Z,16.20
2022-11-03T17:30:16.635Z,16.10
2022-11-03T17:32:44.337Z,16.00
2022-11-03T17:35:17.687Z,16.00
2022-11-03T17:37:45.388Z,16.10
2022-11-03T17:40:16.920Z,16.00
2022-11-03T17:42:44.471Z,16.00
2022-11-03T17:45:15.829Z,16.00
2022-11-03T17:47:43.216Z,16.10
2022-11-03T17:50:14.748Z,16.20
2022-11-03T17:52:43.321Z,16.10
2022-11-03T17:55:22.751Z,16.20
2022-11-03T17:57:50.221Z,16.50
2022-11-03T18:00:20.925Z,16.40
2022-11-03T18:02:49.836Z,16.30
2022-11-03T18:05:26.956Z,16.20
2022-11-03T18:07:55.052Z,16.20
2022-11-03T18:10:29.802Z,16.20
2022-11-03T18:13:18.989Z,16.10
2022-11-03T18:15:47.782Z,16.20
2022-11-03T18:18:16.781Z,16.10
2022-11-03T18:20:51.911Z,16.10
2022-11-03T18:23:22.155Z,16.10
2022-11-03T18:25:50.027Z,16.20
2022-11-03T18:28:17.754Z,16.30
2022-11-03T18:30:47.176Z,16.40
2022-11-03T18:33:26.391Z,16.40
2022-11-03T18:35:54.371Z,16.50
2022-11-03T18:38:22.798Z,16.50
2022-11-03T18:40:50.376Z,16.50
2022-11-03T18:43:19.239Z,16.50
2022-11-03T18:45:47.048Z,16.40
2022-11-03T18:48:20.999Z,16.30
2022-11-03T18:50:52.959Z,16.30
2022-11-03T18:53:21.802Z,16.20
2022-11-03T18:55:49.222Z,16.20
2022-11-03T18:58:17.088Z,16.10
2022-11-03T19:00:44.617Z,16.10
2022-11-03T19:03:16.571Z,16.10
2022-11-03T19:05:48.215Z,16.10
2022-11-03T19:08:23.172Z,16.10
2022-11-03T19:10:51.099Z,16.00
2022-11-03T19:13:23.800Z,16.10
2022-11-03T19:15:51.864Z,16.10
2022-11-03T19:18:19.540Z,16.10
2022-11-03T19:20:46.957Z,16.10
2022-11-03T19:23:14.510Z,16.10
2022-11-03T19:25:43.848Z,16.10
2022-11-03T19:28:13.432Z,16.10
2022-11-03T19:30:41.464Z,16.10
2022-11-03T19:33:16.076Z,16.10
2022-11-03T19:35:43.678Z,16.10
2022-11-03T19:38:13.233Z,16.10
2022-11-03T19:41:00.757Z,16.10
2022-11-03T19:43:33.347Z,16.10
2022-11-03T19:46:02.305Z,16.10
2022-11-03T19:48:31.983Z,16.10
2022-11-03T19:50:59.704Z,16.10
2022-11-03T19:53:29.085Z,16.10
2022-11-03T19:55:56.865Z,16.00
2022-11-03T19:58:25.864Z,16.00
2022-11-03T20:00:53.772Z,16.00
2022-11-03T20:03:22.393Z,16.00
2022-11-03T20:05:54.288Z,16.00
2022-11-03T20:08:23.502Z,15.90
2022-11-03T20:10:51.503Z,15.90
2022-11-03T20:13:20.818Z,15.90
2022-11-03T20:15:48.583Z,15.90
2022-11-03T20:18:16.218Z,15.90
2022-11-03T20:20:44.595Z,15.90
2022-11-03T20:23:32.481Z,16.00
2022-11-03T20:26:00.815Z,16.00
2022-11-03T20:28:29.472Z,16.00
2022-11-03T20:30:57.543Z,15.90
2022-11-03T20:33:25.674Z,15.90
2022-11-03T20:35:53.922Z,15.90
2022-11-03T20:38:22.990Z,15.80
2022-11-03T20:40:58.413Z,15.80
2022-11-03T20:43:34.735Z,15.90
2022-11-03T20:46:02.206Z,15.90
2022-11-03T20:48:29.525Z,15.90
2022-11-03T20:50:57.562Z,15.90
2022-11-03T20:53:25.954Z,15.90
2022-11-03T20:55:53.696Z,15.90
2022-11-03T20:58:21.324Z,15.80
2022-11-03T21:00:49.232Z,15.80
2022-11-03T21:03:38.144Z,15.90
2022-11-03T21:06:13.932Z,15.90
2022-11-03T21:08:41.824Z,15.90
2022-11-03T21:11:24.180Z,15.90
2022-11-03T21:13:52.086Z,15.90
2022-11-03T21:16:38.253Z,15.90
2022-11-03T21:19:34.337Z,15.90
2022-11-03T21:22:01.890Z,15.90
2022-11-03T21:24:29.283Z,15.80
2022-11-03T21:26:56.674Z,15.80
2022-11-03T21:29:58.518Z,15.80
2022-11-03T21:32:13.112Z,15.90
2022-11-03T21:34:41.014Z,15.90
2022-11-03T21:37:10.390Z,16.00
2022-11-03T21:39:37.841Z,15.90
2022-11-03T21:42:23.867Z,15.90
2022-11-03T21:44:51.255Z,15.90
2022-11-03T21:47:21.403Z,15.90
2022-11-03T21:49:49.050Z,15.90
2022-11-03T21:52:17.694Z,15.90
2022-11-03T21:54:45.291Z,15.90
2022-11-03T21:57:15.500Z,15.90
2022-11-03T21:59:42.969Z,15.90
2022-11-03T22:02:12.061Z,15.80
2022-11-03T22:04:39.564Z,15.80
2022-11-03T22:07:07.747Z,15.80
2022-11-03T22:09:35.127Z,15.70
2022-11-03T22:12:02.571Z,15.70
2022-11-03T22:14:49.877Z,15.70
2022-11-03T22:17:17.354Z,15.70
2022-11-03T22:20:23.447Z,15.70
2022-11-03T22:23:09.566Z,15.70
2022-11-03T22:25:55.631Z,15.80
2022-11-03T22:28:23.063Z,15.70
2022-11-03T22:31:09.041Z,15.80
2022-11-03T22:33:56.417Z,15.70
2022-11-03T22:36:23.784Z,15.70
2022-11-03T22:39:09.777Z,15.70
2022-11-03T22:41:55.876Z,15.70
2022-11-03T22:44:41.717Z,15.70
2022-11-03T22:47:09.808Z,15.70
2022-11-03T22:49:37.934Z,15.70
2022-11-03T22:52:05.926Z,15.80
2022-11-03T22:54:33.359Z,15.70
2022-11-03T22:57:00.760Z,15.70
2022-11-03T22:59:28.735Z,15.70
2022-11-03T23:01:56.312Z,15.70
2022-11-03T23:04:24.260Z,15.80
2022-11-03T23:06:52.043Z,15.80
2022-11-03T23:09:19.462Z,15.80
2022-11-03T23:11:46.893Z,15.70
2022-11-03T23:14:14.405Z,15.70
2022-11-03T23:16:42.900Z,15.80
2022-11-03T23:19:30.000Z,15.80
2022-11-03T23:21:57.612Z,15.80
2022-11-03T23:24:45.373Z,15.70
2022-11-03T23:27:13.799Z,15.70
2022-11-03T23:29:41.164Z,15.60
2022-11-03T23:32:08.688Z,15.60
2022-11-03T23:34:36.513Z,15.70
2022-11-03T23:37:03.951Z,15.60
2022-11-03T23:39:31.347Z,15.60
2022-11-03T23:41:58.977Z,15.60
2022-11-03T23:44:46.307Z,15.60
2022-11-03T23:47:32.532Z,15.60
2022-11-03T23:50:00.015Z,15.60
2022-11-03T23:52:27.511Z,15.60
2022-11-03T23:54:54.908Z,15.60
2022-11-03T23:57:41.032Z,15.70
